Time;durP1;ratioP1;P1;durP2;ratioP2;P2;SDS_P1;SDS_P2;PMS_P1;PMS_P2;Temp;Humidity;BMP_temperature;BMP_pressure;BME280_temperature;BME280_humidity;BME280_pressure;Samples;Min_cycle;Max_cycle;Signal;HPM_P1;HPM_P2
2022/11/12 12:40:22;;;;;;;3.92;0.63;;;;;;;15.94;49.34;102231.47;5113609;22;20409;-81
2022/11/12 12:42:56;;;;;;;7.22;0.93;;;;;;;15.78;50.00;102225.56;5078334;28;20043;-81
2022/11/12 12:45:36;;;;;;;8.32;0.80;;;;;;;15.64;50.93;102222.28;5076611;28;20048;-82
2022/11/12 12:48:07;;;;;;;14.13;0.80;;;;;;;15.47;51.94;102226.03;5078821;28;20045;-83
2022/11/12 12:50:38;;;;;;;8.50;1.10;;;;;;;15.38;52.56;102236.72;5075553;28;20051;-81
2022/11/12 12:53:15;;;;;;;8.00;0.82;;;;;;;15.25;53.08;102237.78;5076486;28;20418;-83
2022/11/12 12:55:46;;;;;;;10.73;1.70;;;;;;;15.13;53.58;102243.22;5075858;28;20048;-82
2022/11/12 12:58:18;;;;;;;9.93;0.60;;;;;;;15.08;54.21;102248.53;5075514;28;20041;-81
2022/11/12 13:00:50;;;;;;;7.38;0.63;;;;;;;14.78;54.37;102218.28;5081669;28;20053;-81
2022/11/12 13:03:49;;;;;;;9.95;2.30;;;;;;;14.92;54.36;102257.56;5073722;28;20927;-84
2022/11/12 13:06:24;;;;;;;10.25;1.45;;;;;;;14.84;55.01;102269.03;5071427;28;20049;-83
2022/11/12 13:08:54;;;;;;;9.60;0.90;;;;;;;14.78;55.30;102265.63;5075598;28;20049;-81
2022/11/12 13:15:09;;;;;;;8.70;1.23;;;;;;;14.68;55.36;102261.34;5074164;28;20055;-81
2022/11/12 13:17:48;;;;;;;6.30;1.27;;;;;;;14.63;55.68;102271.94;5077057;28;20116;-81
2022/11/12 13:20:35;;;;;;;5.90;0.80;;;;;;;14.62;55.60;102275.44;5077954;28;20048;-80
2022/11/12 13:23:02;;;;;;;5.63;0.80;;;;;;;14.47;56.51;102263.31;5071838;28;20097;-81
2022/11/12 13:25:31;;;;;;;7.72;1.25;;;;;;;14.55;56.72;102279.91;5069029;28;20055;-81
2022/11/12 13:28:07;;;;;;;9.35;1.48;;;;;;;14.50;56.41;102279.03;5072267;28;20040;-81
2022/11/12 13:30:57;;;;;;;7.13;0.85;;;;;;;14.51;56.62;102277.28;5073777;28;20107;-81
2022/11/12 13:33:29;;;;;;;4.95;0.60;;;;;;;14.48;57.03;102275.53;5067663;28;20124;-82
2022/11/12 13:36:25;;;;;;;7.47;0.90;;;;;;;14.46;56.71;102279.97;5073852;28;20040;-83
2022/11/12 13:38:52;;;;;;;16.97;1.20;;;;;;;14.43;56.86;102277.38;5068567;28;20064;-81
2022/11/12 13:42:46;;;;;;;7.25;1.15;;;;;;;14.37;56.89;102269.53;5070288;28;20045;-84
2022/11/12 13:44:16;;;;;;;9.60;1.58;;;;;;;14.32;57.10;102268.72;5070848;28;20076;-81
2022/11/12 13:46:43;;;;;;;10.23;1.25;;;;;;;14.22;57.53;102274.94;5073439;28;20095;-81
2022/11/12 13:49:13;;;;;;;3.70;0.60;;;;;;;14.14;57.40;102268.03;5072044;28;20052;-81
2022/11/12 13:51:43;;;;;;;5.63;0.55;;;;;;;14.30;57.42;102299.41;5050809;28;20045;-82
2022/11/12 13:54:32;;;;;;;8.90;0.50;;;;;;;14.32;57.09;102313.41;5060807;28;20057;-80
2022/11/12 13:57:14;;;;;;;7.93;0.47;;;;;;;14.16;57.35;102289.88;5059399;28;20046;-80
2022/11/12 13:59:43;;;;;;;3.97;0.50;;;;;;;14.28;57.48;102316.94;5054039;28;20068;-81
2022/11/12 14:02:22;;;;;;;7.10;0.70;;;;;;;14.25;57.49;102316.97;5058300;28;20048;-81
2022/11/12 14:04:50;;;;;;;8.65;0.57;;;;;;;14.21;57.54;102320.53;5057476;28;20488;-82
2022/11/12 14:07:38;;;;;;;7.93;0.80;;;;;;;14.06;57.35;102301.38;5054233;28;20376;-82
2022/11/12 14:18:03;;;;;;;6.65;0.70;;;;;;;13.88;57.43;102312.03;4668504;26;72403;-76
2022/11/12 14:20:35;;;;;;;3.88;0.77;;;;;;;13.83;57.73;102316.44;5030774;28;20569;-77
2022/11/12 14:23:12;;;;;;;5.35;1.02;;;;;;;13.87;57.50;102321.66;5035803;28;20482;-77
2022/11/12 14:25:47;;;;;;;12.70;0.73;;;;;;;13.86;57.82;102329.53;5033969;28;20709;-77
2022/11/12 14:28:26;;;;;;;6.15;1.70;;;;;;;13.97;57.84;102358.38;5034524;28;20048;-77
2022/11/12 14:30:53;;;;;;;17.73;4.93;;;;;;;13.88;58.15;102356.69;5036647;28;20056;-77
2022/11/12 14:33:22;;;;;;;25.75;8.70;;;;;;;13.89;57.91;102367.19;5044314;28;20045;-77
2022/11/12 14:35:51;;;;;;;29.30;8.43;;;;;;;13.85;58.15;102365.44;5034067;28;20406;-76
2022/11/12 14:38:21;;;;;;;29.40;9.13;;;;;;;13.76;58.09;102362.03;5033290;28;20045;-76
2022/11/12 14:40:51;;;;;;;35.88;9.95;;;;;;;13.61;57.98;102347.25;5039947;28;20037;-77
2022/11/12 14:43:22;;;;;;;24.95;6.93;;;;;;;13.67;58.13;102362.97;5029165;28;20045;-76
2022/11/12 14:45:50;;;;;;;8.23;1.63;;;;;;;13.66;58.06;102364.72;5030067;28;20044;-77
2022/11/12 14:48:18;;;;;;;8.40;0.88;;;;;;;13.55;58.14;102357.75;5019708;28;20052;-77
2022/11/12 14:50:48;;;;;;;7.78;1.40;;;;;;;13.65;58.21;102383.97;5017287;28;20048;-77
2022/11/12 14:53:21;;;;;;;14.57;3.40;;;;;;;13.58;57.88;102377.00;5017411;28;20046;-77
2022/11/12 14:55:52;;;;;;;23.70;5.85;;;;;;;13.45;58.32;102368.31;5023928;28;20121;-76
2022/11/12 14:58:21;;;;;;;75.30;22.17;;;;;;;13.56;58.26;102397.13;5016133;28;20554;-77
2022/11/12 15:00:49;;;;;;;67.07;19.67;;;;;;;13.51;57.90;102406.78;5018924;28;20037;-77
2022/11/12 15:03:19;;;;;;;20.25;4.82;;;;;;;13.48;58.03;102402.41;5018656;28;20099;-77
2022/11/12 15:05:56;;;;;;;19.60;6.20;;;;;;;13.46;58.01;102405.94;5021396;28;20053;-76
2022/11/12 15:08:31;;;;;;;13.20;3.45;;;;;;;13.40;58.06;102412.06;5018337;28;20045;-77
2022/11/12 15:11:19;;;;;;;5.72;1.00;;;;;;;13.40;58.38;102416.47;5023881;28;20751;-77
2022/11/12 15:13:46;;;;;;;3.05;0.60;;;;;;;13.22;58.36;102393.75;5021974;28;20130;-76
2022/11/12 15:16:19;;;;;;;7.00;0.93;;;;;;;13.21;58.17;102403.38;5018914;28;20053;-78
2022/11/12 15:19:03;;;;;;;4.43;0.80;;;;;;;13.29;58.28;102434.91;5018622;28;20054;-77
2022/11/12 15:21:31;;;;;;;1.73;0.30;;;;;;;13.20;58.53;102438.34;5019790;28;20041;-77
2022/11/12 15:24:06;;;;;;;4.82;1.05;;;;;;;13.17;58.46;102438.38;5023754;28;20056;-77
2022/11/12 15:26:35;;;;;;;3.08;1.27;;;;;;;13.12;58.66;102442.78;5017391;28;20702;-76
2022/11/12 15:29:13;;;;;;;5.85;0.40;;;;;;;13.09;58.61;102437.53;5020109;28;20418;-76
2022/11/12 15:31:45;;;;;;;4.50;0.40;;;;;;;13.08;58.69;102443.66;5015585;28;20484;-77
2022/11/12 15:34:29;;;;;;;6.22;0.90;;;;;;;13.11;58.58;102448.88;5015718;28;20042;-77
2022/11/12 15:37:02;;;;;;;3.47;0.90;;;;;;;13.08;58.87;102459.38;5015457;28;20586;-76
2022/11/12 15:39:30;;;;;;;8.63;0.95;;;;;;;12.78;58.95;102424.47;5014720;28;20048;-76
2022/11/12 15:41:59;;;;;;;6.15;0.45;;;;;;;13.01;58.80;102469.03;5017229;28;20117;-76
2022/11/12 15:44:29;;;;;;;3.90;0.57;;;;;;;12.98;59.20;102469.03;5015240;28;20045;-77
2022/11/12 15:46:57;;;;;;;3.65;0.50;;;;;;;12.87;59.27;102457.69;5020319;28;20053;-77
2022/11/12 15:49:24;;;;;;;7.10;0.68;;;;;;;12.92;58.92;102487.41;5023262;28;20051;-76
2022/11/12 15:51:51;;;;;;;5.43;0.50;;;;;;;12.90;59.02;102493.53;5014081;28;20049;-78
2022/11/12 15:54:20;;;;;;;6.05;1.25;;;;;;;12.88;59.08;102500.50;5018711;28;20533;-77
2022/11/12 15:56:47;;;;;;;4.93;0.50;;;;;;;12.78;59.18;102495.28;5020619;28;20045;-78
2022/11/12 15:59:16;;;;;;;4.70;0.55;;;;;;;12.62;59.21;102480.41;5021393;28;20045;-78
2022/11/12 16:01:44;;;;;;;7.55;1.85;;;;;;;12.79;59.30;102504.88;5024333;28;20041;-78
2022/11/12 16:04:11;;;;;;;44.85;17.73;;;;;;;12.73;59.40;102497.03;5023703;28;20053;-78
2022/11/12 16:06:38;;;;;;;10.55;4.13;;;;;;;12.67;59.50;102498.78;5020728;28;20053;-78
2022/11/12 16:09:05;;;;;;;10.80;3.83;;;;;;;12.65;59.59;102501.38;5023721;28;20053;-78
2022/11/12 16:11:37;;;;;;;15.23;7.18;;;;;;;12.70;59.78;102518.00;5023661;28;20506;-78
2022/11/12 16:14:07;;;;;;;10.93;4.68;;;;;;;12.43;59.56;102469.03;5022537;28;20501;-77
2022/11/12 16:16:35;;;;;;;7.30;1.50;;;;;;;12.59;59.63;102517.97;5018362;28;20053;-75
2022/11/12 16:19:02;;;;;;;7.05;0.82;;;;;;;12.61;59.47;102520.63;5020590;28;20045;-75
2022/11/12 16:21:29;;;;;;;6.65;0.68;;;;;;;12.57;59.54;102524.09;5021338;28;20641;-74
2022/11/12 16:23:55;;;;;;;6.32;0.82;;;;;;;12.55;59.66;102526.72;5017633;28;20038;-78
2022/11/12 16:26:28;;;;;;;2.58;0.50;;;;;;;12.52;59.91;102520.59;5015038;28;20049;-76
2022/11/12 16:28:57;;;;;;;3.50;0.68;;;;;;;12.41;59.85;102507.50;5019684;28;20041;-75
2022/11/12 16:31:24;;;;;;;6.13;0.40;;;;;;;12.47;59.44;102523.22;5017481;28;20100;-76
2022/11/12 16:33:51;;;;;;;3.08;0.80;;;;;;;12.45;59.63;102524.09;5022444;28;20128;-75
2022/11/12 16:36:18;;;;;;;7.03;0.38;;;;;;;12.37;59.89;102527.53;5019729;28;20104;-75
2022/11/12 16:38:46;;;;;;;5.53;0.70;;;;;;;12.34;59.65;102524.06;5022399;28;20050;-76
2022/11/12 16:41:14;;;;;;;2.60;0.60;;;;;;;12.32;59.92;102537.16;5016953;28;20050;-75
2022/11/12 16:43:41;;;;;;;5.72;0.50;;;;;;;12.35;59.41;102545.03;5021390;28;20049;-75
2022/11/12 16:46:20;;;;;;;5.18;0.30;;;;;;;12.22;59.97;102524.91;5021807;28;20137;-75
2022/11/12 16:48:47;;;;;;;3.13;0.65;;;;;;;12.17;60.13;102531.88;5019289;28;20054;-76
2022/11/12 16:51:17;;;;;;;4.57;0.60;;;;;;;12.23;60.16;102544.97;5021582;28;20046;-76
2022/11/12 16:53:44;;;;;;;4.18;0.50;;;;;;;12.18;59.86;102551.97;5021170;28;20822;-76
2022/11/12 16:56:13;;;;;;;4.70;0.77;;;;;;;12.18;59.85;102561.56;5020762;28;20049;-75
2022/11/12 16:58:40;;;;;;;5.55;0.68;;;;;;;11.91;60.10;102516.94;5019196;28;20045;-76
2022/11/12 17:01:12;;;;;;;2.72;0.50;;;;;;;12.15;60.23;102565.03;5021658;28;20044;-76
2022/11/12 17:03:40;;;;;;;1.83;0.40;;;;;;;12.07;60.23;102561.53;5018874;28;20046;-76
2022/11/12 17:06:07;;;;;;;4.95;0.50;;;;;;;12.11;60.00;102584.25;5022657;28;20140;-75
2022/11/12 17:08:34;;;;;;;5.43;0.70;;;;;;;12.08;60.37;102573.75;5020427;28;20045;-76
2022/11/12 17:11:08;;;;;;;3.95;0.80;;;;;;;12.06;60.32;102565.88;5023415;28;20507;-76
2022/11/12 17:13:35;;;;;;;4.15;0.50;;;;;;;11.98;60.19;102559.75;5016913;28;20085;-76
2022/11/12 17:16:02;;;;;;;5.18;0.60;;;;;;;12.02;60.32;102572.00;5019194;28;20088;-75
2022/11/12 17:18:29;;;;;;;7.82;1.60;;;;;;;11.98;60.01;102566.72;5020141;28;20125;-76
2022/11/12 17:21:06;;;;;;;6.65;1.95;;;;;;;11.95;60.11;102580.66;5017577;28;20046;-76
2022/11/12 17:23:32;;;;;;;4.55;0.40;;;;;;;11.82;60.43;102569.25;5018443;28;20646;-75
2022/11/12 17:26:01;;;;;;;2.72;0.77;;;;;;;11.87;60.68;102583.28;5025909;28;20054;-76
2022/11/12 17:28:29;;;;;;;12.10;0.80;;;;;;;11.82;60.34;102582.34;4953290;28;20089;-75
2022/11/12 17:31:03;;;;;;;2.47;0.40;;;;;;;11.76;60.04;102589.28;5026080;28;20057;-77
2022/11/12 17:33:31;;;;;;;2.20;0.30;;;;;;;11.71;60.59;102586.63;5022101;28;20414;-76
2022/11/12 17:36:02;;;;;;;7.10;0.90;;;;;;;11.68;60.07;102584.00;5026023;28;20491;-76
2022/11/12 17:38:29;;;;;;;4.18;0.40;;;;;;;11.59;60.66;102573.47;5023296;28;20053;-76
2022/11/12 17:40:56;;;;;;;1.73;0.70;;;;;;;11.61;60.56;102598.81;5021579;28;20046;-76
2022/11/12 17:43:23;;;;;;;7.03;0.40;;;;;;;11.58;60.84;102596.13;5024064;28;20065;-75
2022/11/12 17:45:50;;;;;;;8.18;0.70;;;;;;;11.54;60.70;102603.97;5023101;28;20060;-76
2022/11/12 17:48:18;;;;;;;8.82;0.80;;;;;;;11.45;60.96;102596.94;5020986;28;20052;-76
2022/11/12 17:50:45;;;;;;;5.85;0.60;;;;;;;11.35;60.84;102590.75;5022331;28;20399;-76
2022/11/12 17:53:13;;;;;;;8.23;0.60;;;;;;;11.41;61.51;102601.28;5023515;28;20053;-76
2022/11/12 17:55:40;;;;;;;13.60;1.33;;;;;;;11.40;61.14;102609.09;5018040;28;20038;-76
2022/11/12 17:58:07;;;;;;;4.35;0.82;;;;;;;11.31;61.17;102609.91;4968836;28;20045;-76
2022/11/12 18:00:34;;;;;;;5.22;0.63;;;;;;;11.32;61.39;102621.25;5027518;28;20470;-76
2022/11/12 18:03:01;;;;;;;5.40;0.70;;;;;;;11.23;61.71;102624.66;5020616;28;20057;-76
2022/11/12 18:05:28;;;;;;;5.30;0.90;;;;;;;11.24;61.45;102632.53;5024490;28;20520;-76
2022/11/12 18:07:55;;;;;;;2.22;0.73;;;;;;;11.22;61.81;102639.50;5021775;28;20046;-76
2022/11/12 18:10:23;;;;;;;4.38;0.70;;;;;;;11.19;61.91;102643.84;5025656;28;20056;-75
2022/11/12 18:12:52;;;;;;;9.02;1.10;;;;;;;11.16;61.55;102649.91;5020784;28;20041;-76
2022/11/12 18:15:18;;;;;;;3.80;0.90;;;;;;;11.02;61.48;102641.06;5022155;28;20091;-76
2022/11/12 18:17:45;;;;;;;6.40;1.05;;;;;;;11.07;61.76;102664.63;5023734;28;20530;-76
2022/11/12 18:20:12;;;;;;;5.72;0.93;;;;;;;11.10;61.86;102675.09;5022054;28;20060;-76
2022/11/12 18:22:39;;;;;;;5.80;0.85;;;;;;;11.07;62.06;102670.75;5026876;28;20045;-76
2022/11/12 18:25:07;;;;;;;9.70;2.20;;;;;;;11.04;62.19;102675.91;5025929;28;20042;-75
2022/11/12 18:27:36;;;;;;;5.90;1.00;;;;;;;11.02;62.13;102678.53;5018285;28;20160;-76
2022/11/12 18:30:03;;;;;;;6.18;0.70;;;;;;;10.97;62.18;102674.13;5021428;28;20549;-76
2022/11/12 18:32:30;;;;;;;6.13;1.25;;;;;;;10.97;62.42;102695.03;5021756;28;20050;-76
2022/11/12 18:34:57;;;;;;;9.18;1.83;;;;;;;10.95;62.07;102696.75;5024741;28;20080;-76
2022/11/12 18:37:24;;;;;;;6.15;1.00;;;;;;;10.92;62.18;102697.59;5025163;28;20410;-76
2022/11/12 18:39:51;;;;;;;6.05;1.08;;;;;;;10.91;62.19;102705.44;5022373;28;20049;-76
2022/11/12 18:42:17;;;;;;;6.70;1.05;;;;;;;10.89;62.47;102709.75;5023037;28;20057;-76
2022/11/12 18:44:46;;;;;;;6.20;1.45;;;;;;;10.78;62.72;102696.56;5023489;28;20057;-76
2022/11/12 18:47:13;;;;;;;4.40;1.20;;;;;;;10.84;62.67;102714.06;5026703;28;20457;-76
2022/11/12 18:49:40;;;;;;;5.25;1.65;;;;;;;10.81;62.71;102717.50;5024126;28;20041;-76
2022/11/12 18:52:07;;;;;;;12.32;1.95;;;;;;;10.41;62.83;102649.09;5021670;28;20049;-76
2022/11/12 18:54:34;;;;;;;6.22;1.92;;;;;;;10.76;62.86;102717.47;5025287;28;20049;-76
2022/11/12 18:57:00;;;;;;;5.07;1.30;;;;;;;10.71;62.54;102710.44;5025520;28;20328;-76
2022/11/12 18:59:29;;;;;;;4.80;0.90;;;;;;;10.65;62.63;102700.78;5020687;28;20764;-76
2022/11/12 19:01:58;;;;;;;9.38;1.30;;;;;;;10.61;62.76;102706.81;5021996;28;20454;-76
2022/11/12 19:04:25;;;;;;;7.20;0.90;;;;;;;10.57;63.19;102710.25;5025064;28;20049;-76
2022/11/12 19:06:52;;;;;;;6.70;1.08;;;;;;;10.62;62.86;102726.00;5024084;28;20056;-76
2022/11/12 19:09:19;;;;;;;7.15;0.98;;;;;;;10.53;63.03;102724.13;5027650;28;20053;-76
2022/11/12 19:11:46;;;;;;;3.72;1.23;;;;;;;10.56;62.93;102732.91;5024313;28;20046;-76
2022/11/12 19:14:13;;;;;;;4.68;1.38;;;;;;;10.53;63.53;102732.88;5018281;28;20052;-73
2022/11/12 19:16:43;;;;;;;7.78;1.60;;;;;;;10.46;63.22;102732.75;5015748;28;20082;-75
2022/11/12 19:19:13;;;;;;;5.32;1.13;;;;;;;10.46;63.12;102735.38;5018309;28;20053;-74
2022/11/12 19:21:41;;;;;;;3.47;0.98;;;;;;;10.43;63.45;102740.56;5019054;28;20132;-75
2022/11/12 19:24:08;;;;;;;7.43;1.35;;;;;;;10.41;63.18;102743.16;5020368;28;20041;-74
2022/11/12 19:26:35;;;;;;;5.93;1.58;;;;;;;10.39;63.11;102747.50;5019020;28;20054;-74
2022/11/12 19:29:02;;;;;;;6.05;1.30;;;;;;;10.37;63.58;102749.19;5018054;28;20054;-74
2022/11/12 19:31:29;;;;;;;7.20;1.65;;;;;;;10.34;63.20;102749.16;5018238;28;20060;-75
2022/11/12 19:33:56;;;;;;;8.05;1.50;;;;;;;10.32;63.41;102743.03;5018033;28;20056;-75
2022/11/12 19:36:26;;;;;;;7.85;1.20;;;;;;;10.27;63.71;102747.28;5018079;28;20060;-75
2022/11/12 19:38:57;;;;;;;6.38;0.93;;;;;;;10.20;63.26;102746.31;5018631;28;20038;-75
2022/11/12 19:41:24;;;;;;;6.65;1.80;;;;;;;10.25;63.50;102764.66;5019383;28;20068;-75
2022/11/12 19:43:52;;;;;;;8.15;2.35;;;;;;;10.07;63.59;102740.00;5017382;28;20041;-75
2022/11/12 19:46:20;;;;;;;4.93;1.17;;;;;;;10.19;63.37;102767.16;5020227;28;20060;-75
2022/11/12 19:48:46;;;;;;;6.85;2.17;;;;;;;10.19;63.71;102768.06;5020873;28;20049;-75
2022/11/12 19:51:14;;;;;;;5.35;1.33;;;;;;;10.16;63.77;102769.72;5017015;28;20061;-75
2022/11/12 19:53:44;;;;;;;10.82;1.52;;;;;;;10.15;63.95;102779.31;5014284;28;20100;-75
2022/11/12 19:56:12;;;;;;;7.90;1.42;;;;;;;10.12;64.09;102780.13;5017854;28;20037;-75
2022/11/12 19:58:40;;;;;;;6.07;1.20;;;;;;;10.06;63.63;102774.81;5017018;28;20507;-74
2022/11/12 20:01:08;;;;;;;5.35;1.73;;;;;;;10.03;63.76;102769.56;5020301;28;20046;-75
2022/11/12 20:03:36;;;;;;;6.28;1.20;;;;;;;10.08;63.64;102780.06;5014041;28;20496;-75
2022/11/12 20:06:03;;;;;;;3.13;1.08;;;;;;;10.05;63.93;102778.28;5013862;28;20050;-75
2022/11/12 20:08:31;;;;;;;8.63;2.33;;;;;;;10.05;63.91;102782.66;5018031;28;20046;-75
2022/11/12 20:10:59;;;;;;;8.60;1.40;;;;;;;9.94;63.57;102779.84;5014575;28;20054;-75
2022/11/12 20:13:27;;;;;;;8.48;2.58;;;;;;;9.94;64.11;102784.19;5020798;28;20509;-75
2022/11/12 20:15:54;;;;;;;9.65;1.80;;;;;;;9.98;63.82;102802.53;5016108;28;20064;-74
2022/11/12 20:18:21;;;;;;;5.05;1.58;;;;;;;9.96;63.99;102806.88;5015415;28;20052;-75
2022/11/12 20:20:50;;;;;;;6.35;1.52;;;;;;;9.95;63.95;102812.94;5014450;28;21350;-75
2022/11/12 20:23:17;;;;;;;4.95;1.40;;;;;;;9.84;63.93;102802.28;5017925;28;20050;-75
2022/11/12 20:25:44;;;;;;;9.13;1.83;;;;;;;9.91;63.90;102816.34;5017380;28;20045;-75
2022/11/12 20:28:12;;;;;;;5.30;1.13;;;;;;;9.87;63.99;102811.91;5019706;28;20497;-75
2022/11/12 20:30:39;;;;;;;6.63;1.95;;;;;;;9.83;63.97;102812.72;5017771;28;20706;-75
2022/11/12 20:33:06;;;;;;;5.60;1.63;;;;;;;9.81;64.10;102811.81;5012761;28;20568;-74
2022/11/12 20:35:36;;;;;;;4.80;1.38;;;;;;;9.85;64.13;102826.69;5018235;28;20563;-75
2022/11/12 20:38:03;;;;;;;8.77;1.45;;;;;;;9.82;64.13;102826.66;5013998;28;20046;-75
2022/11/12 20:40:31;;;;;;;3.92;1.13;;;;;;;9.81;64.24;102827.47;5018015;28;20046;-75
2022/11/12 20:42:58;;;;;;;4.90;1.17;;;;;;;9.80;64.11;102823.13;5019245;28;20042;-75
2022/11/12 20:45:26;;;;;;;10.25;1.02;;;;;;;9.74;64.17;102817.78;5015584;28;20053;-75
2022/11/12 20:47:55;;;;;;;7.45;1.55;;;;;;;9.77;64.32;102830.91;5012315;28;20079;-74
2022/11/12 20:50:22;;;;;;;7.50;1.17;;;;;;;9.76;64.34;102836.94;5016578;28;20068;-75
2022/11/12 20:52:49;;;;;;;5.18;1.25;;;;;;;9.73;64.12;102829.06;5017207;28;20112;-75
2022/11/12 20:55:16;;;;;;;6.88;1.30;;;;;;;9.68;64.07;102829.88;5016462;28;20490;-75
2022/11/12 20:57:43;;;;;;;9.25;1.52;;;;;;;9.64;64.30;102822.81;5017845;28;20414;-75
2022/11/12 21:00:11;;;;;;;6.00;1.02;;;;;;;9.61;64.21;102828.00;5017473;28;20048;-74
2022/11/12 21:02:39;;;;;;;4.47;1.27;;;;;;;9.64;64.48;102837.59;5019464;28;20049;-75
2022/11/12 21:05:07;;;;;;;4.38;1.00;;;;;;;9.63;64.33;102839.34;5022141;28;20060;-75
2022/11/12 21:07:34;;;;;;;6.55;1.00;;;;;;;9.58;64.66;102837.50;5017133;28;20486;-75
2022/11/12 21:10:01;;;;;;;5.82;1.70;;;;;;;9.56;64.23;102842.72;5022290;28;20614;-74
2022/11/12 21:12:28;;;;;;;9.13;1.30;;;;;;;9.50;64.52;102839.94;5022443;28;20049;-75
2022/11/12 21:14:54;;;;;;;8.32;1.40;;;;;;;9.56;64.34;102850.53;5015972;28;20042;-75
2022/11/12 21:17:21;;;;;;;6.25;1.30;;;;;;;9.51;64.51;102836.53;5018871;28;20137;-75
2022/11/12 21:19:49;;;;;;;4.70;1.90;;;;;;;9.46;64.68;102833.81;5020699;28;20046;-75
2022/11/12 21:22:16;;;;;;;5.22;1.13;;;;;;;9.50;64.53;102839.94;5017126;28;20056;-75
2022/11/12 21:24:43;;;;;;;5.50;1.10;;;;;;;9.45;64.62;102833.78;5022848;28;20479;-74
2022/11/12 21:27:12;;;;;;;5.20;1.20;;;;;;;9.41;64.44;102840.66;5019384;28;20073;-74
2022/11/12 21:29:39;;;;;;;4.32;1.00;;;;;;;9.34;64.58;102832.72;5014703;28;20050;-74
2022/11/12 21:32:06;;;;;;;6.45;0.98;;;;;;;9.40;64.54;102848.47;5017828;28;20902;-74
2022/11/12 21:34:33;;;;;;;9.60;1.30;;;;;;;9.38;64.23;102858.88;5020515;28;20592;-75
2022/11/12 21:37:02;;;;;;;5.00;1.15;;;;;;;9.36;64.02;102859.69;5024631;28;20127;-75
2022/11/12 21:39:29;;;;;;;6.78;1.17;;;;;;;9.30;64.27;102849.13;5017896;28;20060;-75
2022/11/12 21:41:55;;;;;;;4.65;0.88;;;;;;;9.22;64.16;102838.53;5020694;28;20550;-75
2022/11/12 21:44:22;;;;;;;7.15;1.30;;;;;;;9.20;64.01;102843.72;5020891;28;20629;-74
2022/11/12 21:46:49;;;;;;;5.07;0.90;;;;;;;9.26;64.32;102865.56;5022001;28;20517;-75
2022/11/12 21:49:16;;;;;;;3.42;1.00;;;;;;;9.23;64.47;102862.03;5022803;28;20046;-75
2022/11/12 21:51:43;;;;;;;6.25;0.90;;;;;;;9.18;64.29;102858.47;5017106;28;20061;-75
2022/11/12 21:54:13;;;;;;;5.07;1.00;;;;;;;9.13;64.30;102854.88;5019406;28;20056;-73
2022/11/12 21:56:40;;;;;;;6.18;1.02;;;;;;;9.14;64.50;102855.78;5020868;28;20042;-75
2022/11/12 21:59:07;;;;;;;4.70;0.90;;;;;;;9.04;64.34;102839.03;5019109;28;20470;-75
2022/11/12 22:01:34;;;;;;;6.78;1.00;;;;;;;9.11;64.22;102856.59;5019145;28;20038;-75
2022/11/12 22:04:05;;;;;;;4.88;1.27;;;;;;;9.08;64.40;102856.53;5021101;28;20050;-74
2022/11/12 22:06:36;;;;;;;4.43;0.80;;;;;;;9.06;64.23;102853.00;5020600;28;20037;-74
2022/11/12 22:09:04;;;;;;;3.90;0.75;;;;;;;9.03;64.25;102858.16;5017129;28;20072;-74
2022/11/12 22:11:32;;;;;;;5.85;1.33;;;;;;;8.98;64.58;102862.38;5016174;28;20052;-75
2022/11/12 22:13:59;;;;;;;3.30;1.50;;;;;;;8.97;64.37;102865.84;5018516;28;20053;-75
2022/11/12 22:16:28;;;;;;;4.72;1.17;;;;;;;8.91;64.38;102863.13;5017968;28;20521;-74
2022/11/12 22:18:56;;;;;;;5.43;1.10;;;;;;;8.90;64.63;102869.16;5020520;28;20045;-74
2022/11/12 22:21:25;;;;;;;4.15;0.90;;;;;;;8.87;64.23;102863.88;5019342;28;20049;-74
2022/11/12 22:23:52;;;;;;;4.95;0.90;;;;;;;8.84;64.47;102869.88;5019333;28;20085;-75
2022/11/12 22:26:23;;;;;;;4.47;0.75;;;;;;;8.78;64.46;102864.53;5016886;28;20050;-74
2022/11/12 22:28:51;;;;;;;7.75;0.95;;;;;;;8.80;64.58;102869.81;5024238;28;20160;-74
2022/11/12 22:31:20;;;;;;;2.67;0.82;;;;;;;8.77;64.34;102876.69;5016550;28;20209;-74
2022/11/12 22:33:47;;;;;;;4.25;0.80;;;;;;;8.74;64.33;102884.44;5019346;28;20829;-74
2022/11/12 22:36:16;;;;;;;7.65;1.08;;;;;;;8.70;64.30;102885.22;5021727;28;20486;-74
2022/11/12 22:38:44;;;;;;;2.85;0.77;;;;;;;8.67;64.27;102885.13;5021966;28;20049;-74
2022/11/12 22:41:13;;;;;;;5.03;0.90;;;;;;;8.64;64.47;102889.41;5017000;28;20046;-75
2022/11/12 22:43:40;;;;;;;5.85;0.80;;;;;;;8.53;64.70;102874.38;5019874;28;20056;-75
2022/11/12 22:46:11;;;;;;;1.55;0.65;;;;;;;8.58;64.59;102884.94;5015988;28;20618;-74
2022/11/12 22:48:38;;;;;;;2.78;0.70;;;;;;;8.48;64.83;102869.91;5016301;28;20122;-74
2022/11/12 22:51:08;;;;;;;5.28;0.70;;;;;;;8.52;64.57;102890.00;5018944;28;20073;-74
2022/11/12 22:53:35;;;;;;;5.10;0.80;;;;;;;8.46;64.70;102885.53;5019081;28;20050;-74
2022/11/12 22:56:03;;;;;;;8.70;1.05;;;;;;;8.49;64.79;102887.31;5018816;28;20054;-73
2022/11/12 22:58:30;;;;;;;2.38;0.50;;;;;;;8.43;64.94;102887.19;5019981;28;20049;-74
2022/11/12 23:00:57;;;;;;;5.15;0.55;;;;;;;8.44;65.07;102896.75;5013806;28;20161;-74
2022/11/12 23:03:25;;;;;;;2.33;0.82;;;;;;;8.41;64.83;102905.34;5020922;28;20057;-74
2022/11/12 23:05:57;;;;;;;6.78;0.88;;;;;;;8.40;64.89;102905.34;5019150;28;20081;-74
2022/11/12 23:08:24;;;;;;;6.75;1.00;;;;;;;8.31;64.91;102896.41;5017388;28;20049;-74
2022/11/12 23:10:52;;;;;;;5.38;0.93;;;;;;;8.35;65.36;102910.38;5019988;28;20100;-75
2022/11/12 23:13:19;;;;;;;3.40;0.50;;;;;;;8.33;65.08;102910.34;5020527;28;20046;-75
2022/11/12 23:15:46;;;;;;;7.40;1.20;;;;;;;8.30;65.16;102909.38;5019794;28;20064;-74
2022/11/12 23:18:13;;;;;;;5.82;0.60;;;;;;;8.27;65.22;102904.97;5022564;28;20049;-74
2022/11/12 23:20:42;;;;;;;2.53;0.50;;;;;;;8.29;65.06;102911.13;5020409;28;20716;-74
2022/11/12 23:23:09;;;;;;;5.68;1.20;;;;;;;8.22;65.45;102906.59;5020715;28;20053;-74
2022/11/12 23:25:36;;;;;;;6.18;0.60;;;;;;;8.19;65.52;102890.88;5021743;28;20398;-75
2022/11/12 23:28:06;;;;;;;1.70;0.80;;;;;;;8.24;65.37;102910.13;5018942;28;20074;-74
2022/11/12 23:30:33;;;;;;;2.08;0.60;;;;;;;8.21;65.40;102910.03;5020265;28;20046;-75
2022/11/12 23:33:00;;;;;;;3.42;0.50;;;;;;;8.22;65.27;102922.19;5018467;28;20056;-74
2022/11/12 23:35:27;;;;;;;3.38;0.50;;;;;;;8.16;65.51;102911.63;5017012;28;20561;-75
2022/11/12 23:37:56;;;;;;;3.78;0.68;;;;;;;8.20;65.66;102923.03;5019886;28;20060;-74
2022/11/12 23:40:23;;;;;;;6.93;1.83;;;;;;;8.11;65.48;102919.34;5020462;28;20045;-74
2022/11/12 23:42:50;;;;;;;4.30;0.50;;;;;;;8.16;65.46;102932.47;5019498;28;20509;-74
2022/11/12 23:45:17;;;;;;;5.97;0.80;;;;;;;8.16;65.46;102936.78;5016593;28;20050;-74
2022/11/12 23:47:44;;;;;;;5.88;0.70;;;;;;;8.15;65.41;102935.03;5017812;28;20612;-74
2022/11/12 23:50:11;;;;;;;5.35;1.00;;;;;;;8.13;65.46;102927.19;5022223;28;20046;-74
2022/11/12 23:52:38;;;;;;;4.20;0.70;;;;;;;8.12;65.55;102930.63;5018461;28;20092;-74
2022/11/12 23:55:07;;;;;;;2.33;0.45;;;;;;;8.10;65.40;102927.09;5019724;28;20077;-74
2022/11/12 23:57:34;;;;;;;2.42;0.68;;;;;;;8.05;65.49;102921.78;5017201;28;20054;-74
